Terminal Aerodrome Forecast
Issued by NWS Bismarck, ND

Home | Current Version | Previous Version | Graphics & Text | Print | Product List | Glossary On
Versions: 1 2 3 4 5 6 7 8 9 10 11 12 13 14 15 16 17 18 19 20 21 22
000
FTUS43 KBIS 280129 AAA
TAFBIS
TAF AMD
KBIS 280129Z 2801/2824 16013KT P6SM SCT150
     FM280400 15015KT P6SM VCTS BKN050CB
      TEMPO 2804/2806 VRB20G35KT 3SM TSRA OVC040CB
     FM280600 30015KT 5SM SHRA VCTS OVC050CB
     FM280800 22014G22KT P6SM SCT100
     FM281700 26030G45KT P6SM BKN050=

USA.gov is the U.S. government's official web portal to all federal, state and local government web resources and services.